Time;durP1;ratioP1;P1;durP2;ratioP2;P2;SDS_P1;SDS_P2;PMS_P1;PMS_P2;Temp;Humidity;BMP_temperature;BMP_pressure;BME280_temperature;BME280_humidity;BME280_pressure;Samples;Min_cycle;Max_cycle;Signal;HPM_P1;HPM_P2
2022/05/09 00:00:20;;;;;;;14.05;5.03;;;4.60;99.90;;;;;;5087546;28;20039;-82
2022/05/09 00:02:48;;;;;;;14.02;4.57;;;4.50;99.90;;;;;;5116558;27;20087;-81
2022/05/09 00:05:18;;;;;;;15.18;4.90;;;4.40;99.90;;;;;;5113262;27;20047;-81
2022/05/09 00:07:45;;;;;;;18.65;5.60;;;4.60;99.90;;;;;;5097254;28;20058;-81
2022/05/09 00:10:15;;;;;;;18.98;4.95;;;4.50;99.90;;;;;;5108995;28;20112;-81
2022/05/09 00:12:41;;;;;;;17.60;4.78;;;4.50;99.90;;;;;;5109873;27;20052;-81
2022/05/09 00:15:08;;;;;;;15.77;4.60;;;4.40;99.90;;;;;;5112042;27;20039;-81
2022/05/09 00:17:34;;;;;;;15.88;4.85;;;4.40;99.90;;;;;;5089331;28;20099;-81
2022/05/09 00:20:00;;;;;;;13.30;4.43;;;4.40;99.90;;;;;;5091271;28;20085;-81
2022/05/09 00:22:25;;;;;;;13.48;4.15;;;4.40;99.90;;;;;;5077118;28;20429;-81
2022/05/09 00:24:51;;;;;;;12.10;4.57;;;4.40;99.90;;;;;;5078868;28;20044;-81
2022/05/09 00:27:17;;;;;;;9.88;3.85;;;4.50;99.90;;;;;;5088173;28;20408;-81
2022/05/09 00:29:43;;;;;;;15.65;4.60;;;4.40;99.90;;;;;;5068796;28;20051;-81
2022/05/09 00:32:09;;;;;;;11.02;4.18;;;4.50;99.90;;;;;;5079490;28;20054;-80
2022/05/09 00:34:37;;;;;;;13.85;4.57;;;4.40;99.90;;;;;;5072112;28;20044;-82
2022/05/09 00:37:04;;;;;;;10.57;4.28;;;4.40;99.90;;;;;;5110944;28;20048;-81
2022/05/09 00:39:32;;;;;;;11.32;4.63;;;4.40;99.90;;;;;;5116827;27;20566;-81
2022/05/09 00:42:13;;;;;;;11.00;4.25;;;4.30;99.90;;;;;;5097149;27;20039;-84
2022/05/09 00:44:39;;;;;;;11.90;4.45;;;4.30;99.90;;;;;;5112136;27;20035;-83
2022/05/09 00:47:05;;;;;;;12.07;5.18;;;4.20;99.90;;;;;;5111338;27;20043;-82
2022/05/09 00:49:46;;;;;;;14.25;4.40;;;4.10;99.90;;;;;;5101933;27;20044;-81
2022/05/09 00:52:36;;;;;;;12.13;4.18;;;4.20;99.90;;;;;;5098456;27;20047;-82
2022/05/09 00:55:13;;;;;;;10.60;3.30;;;4.30;99.90;;;;;;5112014;27;20043;-82
2022/05/09 00:57:45;;;;;;;16.63;4.30;;;4.10;99.90;;;;;;5120402;27;20039;-81
2022/05/09 01:00:15;;;;;;;15.63;4.13;;;4.10;99.90;;;;;;5107383;27;20043;-81
2022/05/09 01:02:50;;;;;;;9.45;3.90;;;4.10;99.90;;;;;;5128955;27;20048;-80
2022/05/09 01:05:16;;;;;;;9.27;3.45;;;4.10;99.90;;;;;;5096995;27;20051;-81
2022/05/09 01:07:43;;;;;;;14.20;3.80;;;4.10;99.90;;;;;;5090332;28;20063;-81
2022/05/09 01:10:11;;;;;;;10.60;3.38;;;4.10;99.90;;;;;;5081259;28;20540;-80
2022/05/09 01:12:39;;;;;;;9.85;3.60;;;4.00;99.90;;;;;;5092711;28;20435;-81
2022/05/09 01:15:12;;;;;;;10.18;3.92;;;4.00;99.90;;;;;;5125460;27;20043;-81
2022/05/09 01:17:39;;;;;;;11.13;3.60;;;4.00;99.90;;;;;;5094066;27;20066;-81
2022/05/09 01:20:08;;;;;;;13.75;5.22;;;4.00;99.90;;;;;;5076748;28;20047;-83
2022/05/09 01:22:35;;;;;;;16.00;5.30;;;4.00;99.90;;;;;;5125592;27;20126;-81
2022/05/09 01:25:06;;;;;;;12.55;4.95;;;4.00;99.90;;;;;;5115694;27;20039;-81
2022/05/09 01:27:34;;;;;;;13.05;4.15;;;4.00;99.90;;;;;;5128582;27;20713;-81
2022/05/09 01:30:15;;;;;;;14.98;5.32;;;4.00;99.90;;;;;;5082769;28;20123;-81
2022/05/09 01:32:57;;;;;;;22.58;5.40;;;4.00;99.90;;;;;;5104540;27;20122;-80
2022/05/09 01:35:42;;;;;;;16.30;4.95;;;4.00;99.90;;;;;;5115319;27;20278;-81
2022/05/09 01:38:33;;;;;;;17.88;5.30;;;3.90;99.90;;;;;;5120639;27;20050;-80
2022/05/09 01:40:59;;;;;;;16.02;5.18;;;4.00;99.90;;;;;;5102651;27;20048;-83
2022/05/09 01:43:34;;;;;;;14.40;5.20;;;4.00;99.90;;;;;;5115923;27;20044;-80
2022/05/09 01:46:02;;;;;;;18.90;6.03;;;4.00;99.90;;;;;;5127336;27;20047;-82
2022/05/09 01:51:12;;;;;;;10.80;4.78;;;4.10;99.90;;;;;;5094257;28;20059;-82
2022/05/09 01:53:37;;;;;;;16.65;5.15;;;4.10;99.90;;;;;;5074112;27;20133;-81
2022/05/09 01:56:03;;;;;;;14.77;5.55;;;4.10;99.90;;;;;;5127366;27;20485;-81
2022/05/09 01:58:29;;;;;;;13.77;4.93;;;4.10;99.90;;;;;;5076309;28;20040;-81
2022/05/09 02:00:54;;;;;;;16.40;4.25;;;4.00;99.90;;;;;;5085099;28;20449;-82
2022/05/09 02:03:20;;;;;;;14.93;4.75;;;3.80;99.90;;;;;;5086983;28;20377;-82
2022/05/09 02:05:46;;;;;;;18.95;5.03;;;3.70;99.90;;;;;;5103705;27;20130;-81
2022/05/09 02:08:12;;;;;;;12.98;5.47;;;3.70;99.90;;;;;;5112264;27;20116;-80
2022/05/09 02:10:38;;;;;;;19.80;5.95;;;3.60;99.90;;;;;;5111273;27;21875;-80
2022/05/09 02:13:03;;;;;;;10.95;4.75;;;3.50;99.90;;;;;;5089724;28;20068;-81
2022/05/09 02:15:31;;;;;;;16.55;5.68;;;3.50;99.90;;;;;;5084939;27;20039;-81
2022/05/09 02:18:00;;;;;;;13.20;4.65;;;3.40;99.90;;;;;;5097833;28;20028;-81
2022/05/09 02:20:26;;;;;;;18.20;5.38;;;3.60;99.90;;;;;;5139202;27;20565;-82
2022/05/09 02:22:51;;;;;;;18.02;5.05;;;3.50;99.90;;;;;;5096349;28;20047;-81
2022/05/09 02:25:26;;;;;;;17.40;5.63;;;3.30;99.90;;;;;;5112315;27;20047;-80
2022/05/09 02:27:52;;;;;;;15.65;5.15;;;3.30;99.90;;;;;;5107373;27;20554;-79
2022/05/09 02:30:18;;;;;;;13.32;5.35;;;3.30;99.90;;;;;;5091346;27;20050;-80
2022/05/09 02:32:44;;;;;;;13.02;5.55;;;3.30;99.90;;;;;;5098658;28;20047;-81
2022/05/09 02:35:10;;;;;;;20.45;6.10;;;3.20;99.90;;;;;;5077381;28;20083;-81
2022/05/09 02:37:35;;;;;;;13.13;6.15;;;3.10;99.90;;;;;;5122132;27;20082;-83
2022/05/09 02:40:01;;;;;;;15.65;6.05;;;3.30;99.90;;;;;;5119414;27;20141;-80
2022/05/09 02:42:27;;;;;;;19.48;6.05;;;3.20;99.90;;;;;;5088072;27;20047;-80
2022/05/09 02:44:54;;;;;;;21.50;6.78;;;3.20;99.90;;;;;;5085026;27;20239;-81
2022/05/09 02:47:20;;;;;;;20.20;6.30;;;3.30;99.90;;;;;;5094014;28;20043;-83
2022/05/09 02:49:46;;;;;;;16.73;5.90;;;3.50;99.90;;;;;;5121615;27;20044;-83
2022/05/09 02:52:12;;;;;;;14.82;6.50;;;3.30;99.90;;;;;;5092488;27;20129;-81
2022/05/09 02:54:38;;;;;;;12.57;5.95;;;3.40;99.90;;;;;;5098040;27;20111;-83
2022/05/09 02:57:05;;;;;;;12.70;4.97;;;3.30;99.90;;;;;;5107324;27;20047;-81
2022/05/09 02:59:31;;;;;;;13.68;5.32;;;3.30;99.90;;;;;;5137853;27;20048;-81
2022/05/09 03:01:56;;;;;;;13.07;5.38;;;3.20;99.90;;;;;;5117291;27;20048;-82
2022/05/09 03:04:41;;;;;;;14.52;5.65;;;3.30;99.90;;;;;;5076531;28;20048;-81
2022/05/09 03:07:12;;;;;;;17.08;5.95;;;3.20;99.90;;;;;;5073867;28;20073;-82
2022/05/09 03:09:39;;;;;;;13.60;5.43;;;3.30;99.90;;;;;;5120200;27;20136;-85
2022/05/09 03:12:05;;;;;;;15.05;6.35;;;3.10;99.90;;;;;;5122767;27;20055;-81
2022/05/09 03:14:31;;;;;;;16.10;6.28;;;3.10;99.90;;;;;;5110703;27;20047;-82
2022/05/09 03:16:57;;;;;;;17.92;5.38;;;3.10;99.90;;;;;;5096836;27;20043;-82
2022/05/09 03:19:24;;;;;;;10.48;5.78;;;3.10;99.90;;;;;;5105094;28;20059;-81
2022/05/09 03:21:51;;;;;;;9.38;4.93;;;3.10;99.90;;;;;;5098367;28;20126;-82
2022/05/09 03:24:17;;;;;;;10.65;5.15;;;3.30;99.90;;;;;;5092258;27;20056;-81
2022/05/09 03:26:44;;;;;;;12.02;4.95;;;3.00;99.90;;;;;;5110897;27;20052;-84
2022/05/09 03:29:10;;;;;;;16.00;5.15;;;2.90;99.90;;;;;;5089892;27;20047;-81
2022/05/09 03:31:36;;;;;;;14.35;5.50;;;2.90;99.90;;;;;;5107539;27;20486;-82
2022/05/09 03:34:02;;;;;;;16.30;4.45;;;2.90;99.90;;;;;;5111636;27;20043;-81
2022/05/09 03:36:28;;;;;;;11.50;4.68;;;3.00;99.90;;;;;;5100426;28;20483;-81
2022/05/09 03:38:53;;;;;;;8.27;4.70;;;3.10;99.90;;;;;;5092931;28;20198;-81
2022/05/09 03:41:20;;;;;;;11.32;3.95;;;3.00;99.90;;;;;;5128975;27;20050;-82
2022/05/09 03:43:46;;;;;;;6.75;3.47;;;3.10;99.90;;;;;;5112785;27;20526;-82
2022/05/09 03:46:12;;;;;;;7.53;3.45;;;3.10;99.90;;;;;;5099677;27;20047;-82
2022/05/09 03:48:37;;;;;;;5.05;3.22;;;3.20;99.90;;;;;;5077733;28;20051;-81
2022/05/09 03:51:03;;;;;;;6.93;3.33;;;3.10;99.90;;;;;;5099516;27;20046;-81
2022/05/09 03:53:29;;;;;;;6.47;3.58;;;3.10;99.90;;;;;;5103127;27;20145;-81
2022/05/09 03:55:55;;;;;;;6.78;3.10;;;3.10;99.90;;;;;;5072333;28;20044;-81
2022/05/09 03:58:20;;;;;;;9.68;3.58;;;3.10;99.90;;;;;;5108825;27;20063;-80
2022/05/09 04:00:46;;;;;;;6.45;3.67;;;3.10;99.90;;;;;;5090311;27;20048;-82
2022/05/09 04:03:12;;;;;;;13.32;4.28;;;3.00;99.90;;;;;;5083728;28;20056;-81
2022/05/09 04:05:38;;;;;;;9.90;3.92;;;3.00;99.90;;;;;;5093618;28;20043;-84
2022/05/09 04:08:09;;;;;;;8.25;4.70;;;3.00;99.90;;;;;;5110966;27;20408;-81
2022/05/09 04:10:37;;;;;;;10.68;3.97;;;3.00;99.90;;;;;;5120443;27;20063;-81
2022/05/09 04:13:03;;;;;;;11.32;3.95;;;3.00;99.90;;;;;;5059141;28;20071;-80
2022/05/09 04:18:17;;;;;;;15.30;4.97;;;3.20;99.90;;;;;;5112824;27;20055;-84
2022/05/09 04:20:46;;;;;;;8.52;4.03;;;3.00;99.90;;;;;;5086156;28;20050;-87
2022/05/09 04:23:12;;;;;;;10.10;4.00;;;3.00;99.90;;;;;;5129591;28;20435;-81
2022/05/09 04:25:38;;;;;;;8.23;4.18;;;3.00;99.90;;;;;;5081484;28;20281;-84
2022/05/09 04:28:06;;;;;;;7.60;4.13;;;3.10;99.90;;;;;;5098240;28;20075;-81
2022/05/09 04:30:36;;;;;;;8.38;3.90;;;3.10;99.90;;;;;;5120897;28;20062;-82
2022/05/09 04:33:04;;;;;;;8.60;4.43;;;3.10;99.90;;;;;;5101352;28;20061;-81
2022/05/09 04:35:31;;;;;;;8.75;4.47;;;3.10;99.90;;;;;;5102030;28;20052;-81
2022/05/09 04:37:57;;;;;;;9.38;4.85;;;3.20;99.90;;;;;;5071907;28;20109;-82
2022/05/09 04:40:28;;;;;;;14.25;4.80;;;3.20;99.90;;;;;;5090110;28;20051;-81
2022/05/09 04:42:56;;;;;;;11.40;4.97;;;3.10;99.90;;;;;;5109925;28;20493;-80
2022/05/09 04:45:23;;;;;;;10.68;4.68;;;3.10;99.90;;;;;;5102672;28;20083;-81
2022/05/09 04:47:50;;;;;;;9.48;4.57;;;3.10;99.90;;;;;;5089825;28;20043;-81
2022/05/09 04:50:18;;;;;;;10.07;4.78;;;3.10;99.90;;;;;;5091067;28;20086;-80
2022/05/09 04:52:44;;;;;;;13.10;5.13;;;3.30;99.90;;;;;;5108524;28;20109;-85
2022/05/09 04:55:12;;;;;;;14.90;4.57;;;3.20;99.90;;;;;;5092865;28;20081;-81
2022/05/09 04:57:38;;;;;;;15.77;5.28;;;3.30;99.90;;;;;;5100283;28;20591;-81
2022/05/09 05:00:08;;;;;;;10.40;5.53;;;3.30;99.90;;;;;;5108170;28;20048;-83
2022/05/09 05:02:34;;;;;;;20.08;6.35;;;3.40;99.90;;;;;;5113996;28;20090;-82
2022/05/09 05:05:00;;;;;;;12.20;5.60;;;3.40;99.90;;;;;;5095141;28;20094;-82
2022/05/09 05:07:25;;;;;;;15.35;5.88;;;3.40;99.90;;;;;;5092510;28;20035;-80
2022/05/09 05:09:51;;;;;;;16.58;5.90;;;3.50;99.90;;;;;;5086568;28;20051;-79
2022/05/09 05:12:17;;;;;;;24.65;6.82;;;3.60;99.90;;;;;;5097022;28;20148;-80
2022/05/09 05:14:44;;;;;;;19.85;7.57;;;3.70;99.90;;;;;;5127071;28;20127;-79
2022/05/09 05:17:11;;;;;;;17.23;7.07;;;3.80;99.90;;;;;;5111325;28;20049;-81
2022/05/09 05:19:40;;;;;;;23.98;8.48;;;4.00;99.90;;;;;;5079033;28;20078;-81
2022/05/09 05:22:06;;;;;;;28.98;8.13;;;4.10;99.90;;;;;;5102316;28;20043;-81
2022/05/09 05:24:33;;;;;;;24.92;9.23;;;4.20;99.90;;;;;;5114769;28;20036;-81
2022/05/09 05:26:59;;;;;;;19.65;8.25;;;4.20;99.90;;;;;;5090580;28;20040;-82
2022/05/09 05:29:26;;;;;;;26.60;8.77;;;4.40;99.90;;;;;;5111255;27;20131;-82
2022/05/09 05:31:52;;;;;;;20.23;8.10;;;4.40;99.90;;;;;;5111245;27;20051;-82
2022/05/09 05:34:18;;;;;;;20.98;8.65;;;4.60;99.90;;;;;;5112739;27;20131;-81
2022/05/09 05:36:45;;;;;;;18.52;7.93;;;4.70;99.90;;;;;;5106241;28;20091;-83
2022/05/09 05:39:15;;;;;;;25.52;8.88;;;4.90;99.90;;;;;;5128304;27;20058;-83
2022/05/09 05:41:43;;;;;;;18.15;7.82;;;5.00;99.90;;;;;;5116370;27;20040;-82
2022/05/09 05:44:11;;;;;;;17.70;7.55;;;5.10;99.90;;;;;;5072513;28;20047;-82
2022/05/09 05:46:41;;;;;;;16.73;8.02;;;5.20;99.90;;;;;;5073808;28;20051;-80
2022/05/09 05:49:08;;;;;;;24.02;9.63;;;5.40;99.90;;;;;;5074715;27;20244;-82
2022/05/09 05:51:36;;;;;;;26.17;8.35;;;5.60;99.90;;;;;;5125056;27;20113;-81
2022/05/09 05:54:03;;;;;;;23.13;8.70;;;5.70;99.90;;;;;;5098383;28;20848;-82
2022/05/09 05:56:28;;;;;;;21.73;7.88;;;6.00;99.90;;;;;;5085593;28;20086;-83
2022/05/09 05:58:54;;;;;;;23.02;9.95;;;6.20;99.90;;;;;;5099033;28;20083;-82
2022/05/09 06:01:22;;;;;;;20.17;8.07;;;6.50;99.90;;;;;;5093211;28;20105;-81
2022/05/09 06:03:48;;;;;;;19.52;8.70;;;6.90;99.90;;;;;;5095394;27;20047;-82
2022/05/09 06:06:15;;;;;;;25.55;9.30;;;7.20;99.90;;;;;;5090489;27;20050;-82
2022/05/09 06:08:43;;;;;;;20.10;8.10;;;7.60;99.90;;;;;;5102055;27;20047;-82
2022/05/09 06:11:10;;;;;;;22.42;8.88;;;7.90;99.90;;;;;;5120567;27;20540;-82
2022/05/09 06:13:36;;;;;;;21.00;7.88;;;8.20;99.90;;;;;;5112249;27;20047;-82
2022/05/09 06:16:01;;;;;;;20.90;7.45;;;8.50;99.90;;;;;;5110633;28;20043;-83
2022/05/09 06:18:27;;;;;;;20.92;7.82;;;8.80;99.90;;;;;;5111660;27;20052;-84
2022/05/09 06:20:53;;;;;;;21.73;7.22;;;9.10;99.90;;;;;;5100826;27;20617;-85
2022/05/09 06:23:19;;;;;;;18.77;6.97;;;9.50;99.90;;;;;;5095245;28;20119;-82
2022/05/09 06:25:46;;;;;;;16.73;7.28;;;9.70;99.90;;;;;;5067839;27;20122;-83
2022/05/09 06:28:17;;;;;;;16.60;6.35;;;10.00;99.90;;;;;;5077759;28;20048;-83
2022/05/09 06:30:44;;;;;;;18.30;6.53;;;10.30;99.90;;;;;;5091327;28;20101;-82
2022/05/09 06:33:10;;;;;;;17.80;6.40;;;10.60;99.90;;;;;;5092052;27;20055;-82
2022/05/09 06:35:43;;;;;;;11.15;5.90;;;10.80;99.90;;;;;;5131394;27;20392;-81
2022/05/09 06:38:14;;;;;;;15.32;5.75;;;11.10;99.90;;;;;;5107256;28;20054;-82
2022/05/09 06:40:40;;;;;;;17.10;5.78;;;11.30;99.90;;;;;;5094003;28;20504;-82
2022/05/09 06:43:07;;;;;;;13.30;4.85;;;11.40;99.90;;;;;;5076233;28;20086;-82
2022/05/09 06:45:33;;;;;;;19.27;5.60;;;11.60;99.90;;;;;;5110691;27;20043;-82
2022/05/09 06:47:59;;;;;;;18.77;5.57;;;11.60;99.90;;;;;;5110382;27;20132;-82
2022/05/09 06:50:31;;;;;;;14.00;5.65;;;11.80;99.90;;;;;;5111308;28;20817;-81
2022/05/09 06:52:58;;;;;;;19.20;5.93;;;11.80;99.90;;;;;;5126837;27;20082;-82
2022/05/09 06:55:24;;;;;;;15.15;4.68;;;11.80;99.90;;;;;;5124287;27;20062;-82
2022/05/09 06:57:50;;;;;;;16.23;4.65;;;12.00;99.90;;;;;;5113217;27;20496;-82
2022/05/09 07:00:23;;;;;;;13.63;4.68;;;12.10;99.90;;;;;;5079974;28;20058;-82
2022/05/09 07:02:49;;;;;;;13.23;4.45;;;12.20;99.90;;;;;;5114054;27;20525;-83
2022/05/09 07:05:17;;;;;;;18.15;5.32;;;12.30;99.90;;;;;;5100160;27;20043;-82
2022/05/09 07:07:44;;;;;;;15.60;4.45;;;12.60;99.90;;;;;;5110282;27;20096;-80
2022/05/09 07:10:11;;;;;;;14.57;5.40;;;12.80;99.90;;;;;;5093577;28;20058;-82
2022/05/09 07:12:46;;;;;;;11.75;4.50;;;13.10;99.90;;;;;;5104765;27;20676;-82
2022/05/09 07:15:14;;;;;;;13.23;4.78;;;13.30;99.90;;;;;;5104285;27;20051;-82
2022/05/09 07:17:40;;;;;;;12.35;4.32;;;13.50;99.90;;;;;;5091266;28;20043;-83
2022/05/09 07:20:07;;;;;;;15.00;4.60;;;13.70;99.90;;;;;;5108733;28;20039;-82
2022/05/09 07:22:32;;;;;;;12.48;4.43;;;14.00;99.90;;;;;;5075559;28;20043;-82
2022/05/09 07:24:58;;;;;;;12.05;4.43;;;14.20;99.90;;;;;;5075343;28;20047;-86
2022/05/09 07:27:24;;;;;;;13.05;4.40;;;14.40;99.90;;;;;;5092128;28;20048;-81
2022/05/09 07:29:50;;;;;;;13.82;4.32;;;14.60;99.90;;;;;;5108959;28;20138;-83
2022/05/09 07:32:16;;;;;;;15.75;5.15;;;14.80;99.90;;;;;;5074909;28;20047;-82
2022/05/09 07:34:41;;;;;;;11.70;4.35;;;15.10;99.90;;;;;;5091730;28;20054;-82
2022/05/09 07:37:07;;;;;;;11.93;4.13;;;15.40;99.50;;;;;;5088731;28;20054;-82
2022/05/09 07:39:33;;;;;;;12.40;3.90;;;15.60;97.90;;;;;;5092931;28;20048;-83
2022/05/09 07:41:59;;;;;;;9.05;3.60;;;15.80;96.00;;;;;;5115598;27;20408;-87
2022/05/09 07:44:24;;;;;;;12.48;4.30;;;16.00;93.40;;;;;;5112075;27;20443;-82
2022/05/09 07:46:50;;;;;;;9.70;3.90;;;16.20;91.70;;;;;;5102978;28;20047;-82
2022/05/09 07:49:16;;;;;;;10.50;3.53;;;16.30;90.30;;;;;;5109711;27;20051;-83
2022/05/09 07:51:41;;;;;;;13.93;4.40;;;16.30;87.10;;;;;;5092344;28;20126;-82
2022/05/09 07:54:08;;;;;;;14.18;3.72;;;16.00;85.50;;;;;;5092167;28;20051;-82
2022/05/09 07:56:34;;;;;;;10.80;3.67;;;15.80;83.00;;;;;;5092705;28;20514;-84
2022/05/09 07:58:59;;;;;;;10.18;3.38;;;15.60;81.00;;;;;;5101024;27;20134;-84
2022/05/09 08:01:26;;;;;;;14.13;3.63;;;15.50;79.50;;;;;;5095596;27;20404;-83
2022/05/09 08:03:51;;;;;;;10.85;3.42;;;15.30;78.90;;;;;;5078851;28;20048;-83
2022/05/09 08:06:17;;;;;;;9.45;3.22;;;15.30;77.90;;;;;;5135959;27;20104;-83
2022/05/09 08:08:46;;;;;;;11.13;4.25;;;15.20;75.90;;;;;;5070423;28;20085;-83
2022/05/09 08:11:12;;;;;;;12.73;4.00;;;15.20;76.80;;;;;;5091624;28;20058;-83
2022/05/09 08:13:42;;;;;;;11.20;4.10;;;15.10;76.70;;;;;;5072324;28;20059;-84
2022/05/09 08:16:08;;;;;;;12.10;3.80;;;15.10;79.00;;;;;;5117975;27;20055;-84
2022/05/09 08:18:34;;;;;;;14.55;3.88;;;15.10;79.90;;;;;;5119734;27;20653;-84
2022/05/09 08:21:00;;;;;;;11.52;3.67;;;15.20;79.70;;;;;;5078487;28;20048;-85
2022/05/09 08:23:27;;;;;;;14.90;3.95;;;15.30;79.00;;;;;;5142527;27;20105;-83
2022/05/09 08:25:55;;;;;;;10.13;3.55;;;15.40;77.50;;;;;;5112963;28;20042;-83
2022/05/09 08:28:21;;;;;;;10.20;2.90;;;15.50;77.10;;;;;;5091879;28;20050;-82
2022/05/09 08:30:49;;;;;;;10.38;4.40;;;15.60;76.90;;;;;;5116021;28;20390;-81
2022/05/09 08:33:34;;;;;;;12.18;4.20;;;15.80;75.80;;;;;;5106441;28;20039;-82
2022/05/09 08:36:03;;;;;;;14.82;4.68;;;16.70;76.10;;;;;;5107738;28;20068;-84
2022/05/09 08:38:29;;;;;;;13.13;3.85;;;17.90;68.70;;;;;;5107882;28;20051;-83
2022/05/09 08:41:12;;;;;;;13.18;4.70;;;19.00;64.30;;;;;;5091751;28;20370;-82
2022/05/09 08:43:55;;;;;;;11.35;3.92;;;19.90;60.60;;;;;;5091852;28;20067;-84
2022/05/09 08:46:45;;;;;;;11.20;3.65;;;20.80;57.90;;;;;;5091137;28;20051;-84
2022/05/09 08:49:28;;;;;;;14.18;3.38;;;21.50;54.20;;;;;;5108056;28;20454;-82
2022/05/09 08:52:10;;;;;;;9.27;3.70;;;22.00;53.80;;;;;;5091905;28;20047;-83
2022/05/09 08:54:37;;;;;;;13.10;4.03;;;22.70;51.30;;;;;;5102354;28;20058;-83
2022/05/09 08:57:08;;;;;;;11.38;4.22;;;23.20;48.40;;;;;;5091648;28;20149;-81
2022/05/09 08:59:40;;;;;;;13.73;4.60;;;23.60;46.10;;;;;;5090714;28;20071;-84
2022/05/09 09:02:18;;;;;;;15.13;6.03;;;24.10;44.30;;;;;;5108679;28;20047;-85
2022/05/09 09:04:51;;;;;;;7.88;3.67;;;24.40;42.30;;;;;;5095376;28;20039;-82
2022/05/09 09:07:36;;;;;;;9.82;2.92;;;24.80;43.30;;;;;;5111422;28;20140;-82
2022/05/09 09:10:21;;;;;;;12.77;3.42;;;25.10;42.20;;;;;;5094592;28;20085;-80
2022/05/09 09:13:29;;;;;;;11.10;3.70;;;25.60;41.20;;;;;;5075576;28;20036;-83
2022/05/09 09:16:22;;;;;;;14.55;3.60;;;26.10;39.60;;;;;;5061802;28;20507;-83
2022/05/09 09:19:11;;;;;;;9.13;3.10;;;26.40;37.10;;;;;;5094795;28;20703;-84
2022/05/09 09:21:55;;;;;;;9.48;3.00;;;26.70;35.40;;;;;;5098807;27;20264;-80
2022/05/09 09:24:40;;;;;;;7.10;2.67;;;27.20;34.40;;;;;;5129747;27;20067;-80
2022/05/09 09:27:15;;;;;;;8.88;3.05;;;27.50;33.10;;;;;;5106480;27;20039;-80
2022/05/09 09:29:51;;;;;;;7.18;2.88;;;27.90;32.50;;;;;;5122793;27;20043;-81
2022/05/09 09:32:18;;;;;;;11.88;2.50;;;28.40;32.50;;;;;;5107579;27;20054;-78
2022/05/09 09:34:58;;;;;;;9.80;2.58;;;28.70;30.40;;;;;;5132175;27;20054;-82
2022/05/09 09:37:38;;;;;;;8.63;3.10;;;28.80;28.10;;;;;;5114961;27;20062;-82
2022/05/09 09:40:05;;;;;;;7.32;2.50;;;28.70;28.30;;;;;;5095600;28;20044;-82
2022/05/09 09:42:32;;;;;;;10.55;2.60;;;28.70;28.10;;;;;;5128303;27;20101;-80
2022/05/09 09:45:03;;;;;;;10.77;2.63;;;28.90;27.60;;;;;;5106559;28;20047;-81
2022/05/09 09:47:30;;;;;;;7.10;2.60;;;29.30;27.30;;;;;;5094654;27;20107;-81
2022/05/09 09:50:20;;;;;;;9.32;2.50;;;29.70;27.30;;;;;;5118410;27;20051;-80
2022/05/09 09:52:52;;;;;;;6.57;2.17;;;29.90;26.60;;;;;;5123107;27;20047;-80
2022/05/09 09:55:31;;;;;;;7.82;2.60;;;30.10;26.50;;;;;;5110357;28;20564;-80
2022/05/09 09:57:59;;;;;;;7.22;2.50;;;30.20;25.30;;;;;;5093982;28;20062;-82
2022/05/09 10:00:30;;;;;;;10.48;2.80;;;30.20;24.90;;;;;;5093490;28;20062;-83
2022/05/09 10:03:16;;;;;;;7.95;2.03;;;30.10;24.40;;;;;;5093119;28;20058;-82
2022/05/09 10:05:45;;;;;;;8.65;2.40;;;30.20;24.70;;;;;;5111229;28;20169;-83
2022/05/09 10:08:36;;;;;;;9.43;2.75;;;30.50;24.70;;;;;;5093760;28;20056;-83
2022/05/09 10:11:09;;;;;;;8.98;2.50;;;30.80;23.90;;;;;;5123962;27;20055;-82
2022/05/09 10:13:44;;;;;;;8.27;2.40;;;31.10;23.80;;;;;;5097940;27;20043;-83
2022/05/09 10:16:30;;;;;;;5.57;2.20;;;31.50;23.20;;;;;;5099586;27;20047;-83
2022/05/09 10:18:58;;;;;;;7.05;2.05;;;31.90;24.10;;;;;;5113897;27;20086;-81
2022/05/09 10:24:47;;;;;;;8.82;2.33;;;32.40;22.40;;;;;;5119177;27;20059;-81
2022/05/09 10:27:32;;;;;;;8.25;3.03;;;32.50;24.00;;;;;;5091392;28;20043;-83
2022/05/09 10:30:03;;;;;;;8.07;2.65;;;32.30;21.90;;;;;;5108605;28;20042;-80
2022/05/09 10:32:41;;;;;;;5.60;1.98;;;32.00;23.00;;;;;;5111493;27;20047;-82
2022/05/09 10:35:35;;;;;;;6.50;2.33;;;32.30;23.20;;;;;;5108016;27;20536;-81
2022/05/09 10:38:03;;;;;;;10.73;2.88;;;32.60;23.30;;;;;;5131198;27;20101;-82
2022/05/09 10:40:46;;;;;;;8.13;2.47;;;33.10;22.90;;;;;;5113424;27;20369;-83
2022/05/09 10:43:21;;;;;;;7.00;2.10;;;33.50;22.20;;;;;;5095536;27;20074;-82
2022/05/09 10:45:52;;;;;;;9.25;2.33;;;33.80;21.90;;;;;;5084505;28;20059;-81
2022/05/09 10:48:20;;;;;;;5.25;2.05;;;33.70;21.40;;;;;;5078270;28;20303;-81
2022/05/09 10:50:50;;;;;;;6.90;2.17;;;33.60;21.30;;;;;;5106878;27;20040;-82
2022/05/09 10:53:31;;;;;;;8.20;2.33;;;33.50;21.10;;;;;;5108582;27;20059;-83
2022/05/09 10:56:34;;;;;;;12.10;2.35;;;33.80;21.10;;;;;;5092964;28;20063;-81
2022/05/09 10:59:24;;;;;;;6.55;2.13;;;34.10;21.20;;;;;;5088366;28;20047;-82
2022/05/09 11:02:09;;;;;;;8.35;2.38;;;34.30;20.90;;;;;;5094254;28;20062;-81
2022/05/09 11:04:37;;;;;;;9.68;2.20;;;34.20;20.40;;;;;;5089388;28;20066;-81
2022/05/09 11:07:24;;;;;;;6.70;2.15;;;34.00;20.80;;;;;;5105015;28;20067;-81
2022/05/09 11:10:10;;;;;;;7.40;2.10;;;34.10;20.30;;;;;;5088178;28;20087;-84
2022/05/09 11:13:21;;;;;;;6.75;2.00;;;34.10;21.00;;;;;;5121716;27;20036;-81
2022/05/09 11:16:06;;;;;;;5.10;2.05;;;34.50;21.40;;;;;;5094803;28;20048;-81
2022/05/09 11:18:44;;;;;;;6.70;1.83;;;35.20;20.40;;;;;;5088525;28;20052;-81
2022/05/09 11:21:12;;;;;;;6.88;1.83;;;35.10;19.60;;;;;;5105135;28;20047;-81
2022/05/09 11:24:24;;;;;;;4.95;1.60;;;35.10;20.10;;;;;;5090112;28;20062;-80
2022/05/09 11:27:04;;;;;;;3.90;1.58;;;35.50;20.10;;;;;;5119835;27;20043;-82
2022/05/09 11:30:08;;;;;;;5.78;1.63;;;35.40;19.80;;;;;;5091335;28;20058;-82
2022/05/09 11:32:42;;;;;;;4.60;1.83;;;35.20;18.70;;;;;;5111005;27;20067;-81
2022/05/09 11:35:29;;;;;;;11.13;1.90;;;34.00;19.40;;;;;;5091641;28;20062;-81
2022/05/09 11:38:33;;;;;;;9.68;1.92;;;33.20;20.10;;;;;;5095216;27;20051;-81
2022/05/09 11:41:36;;;;;;;5.38;1.85;;;33.10;20.40;;;;;;5105633;28;20043;-82
2022/05/09 11:44:21;;;;;;;6.32;2.13;;;33.40;20.90;;;;;;5122865;27;20051;-82
2022/05/09 11:47:10;;;;;;;6.55;1.73;;;33.40;20.60;;;;;;5126260;27;20043;-81
2022/05/09 11:50:10;;;;;;;6.70;1.70;;;34.00;20.20;;;;;;5113747;27;20079;-83
2022/05/09 11:52:41;;;;;;;6.22;1.90;;;34.90;20.60;;;;;;5091539;28;20504;-81
2022/05/09 11:55:11;;;;;;;7.70;2.00;;;34.90;20.20;;;;;;5123369;27;20046;-82
2022/05/09 11:57:40;;;;;;;5.65;1.70;;;34.70;19.70;;;;;;5092438;28;20040;-80
2022/05/09 12:00:32;;;;;;;6.43;2.08;;;34.90;20.00;;;;;;5106316;27;20196;-81
2022/05/09 12:03:01;;;;;;;5.55;1.85;;;35.40;20.10;;;;;;5105339;27;20059;-81
2022/05/09 12:05:48;;;;;;;6.93;2.05;;;35.80;19.70;;;;;;5081814;27;20036;-82
2022/05/09 12:08:22;;;;;;;4.82;1.80;;;36.20;19.30;;;;;;5102990;28;20075;-82
2022/05/09 12:11:12;;;;;;;7.97;2.00;;;36.30;18.40;;;;;;5098564;28;20060;-81
2022/05/09 12:13:38;;;;;;;5.20;1.73;;;35.70;18.80;;;;;;5107770;28;20089;-82
2022/05/09 12:16:04;;;;;;;6.13;2.50;;;35.30;19.20;;;;;;5091607;28;20105;-81
2022/05/09 12:18:53;;;;;;;6.45;1.90;;;35.20;18.90;;;;;;5110881;28;20046;-82
2022/05/09 12:21:24;;;;;;;9.25;2.08;;;35.20;18.70;;;;;;5108195;28;20073;-82
2022/05/09 12:24:08;;;;;;;7.18;2.22;;;34.80;19.20;;;;;;5091346;28;20058;-83
2022/05/09 12:26:52;;;;;;;7.03;2.30;;;34.80;19.30;;;;;;5092320;28;20099;-81
2022/05/09 12:29:18;;;;;;;8.93;2.10;;;35.00;19.70;;;;;;5091301;28;20079;-81
2022/05/09 12:31:56;;;;;;;6.18;1.70;;;35.50;19.40;;;;;;5090651;28;20078;-81
2022/05/09 12:34:30;;;;;;;5.10;1.75;;;36.20;19.70;;;;;;5071878;28;20079;-85
2022/05/09 12:37:09;;;;;;;;;;;36.80;19.00;;;;;;5120999;27;20044;-81
2022/05/09 12:39:55;;;;;;;5.65;1.80;;;36.70;19.40;;;;;;5111698;28;19977;-82
2022/05/09 12:42:38;;;;;;;6.07;2.00;;;37.10;19.40;;;;;;5113811;27;20162;-82
2022/05/09 12:45:06;;;;;;;7.40;2.47;;;37.30;18.60;;;;;;5118128;27;20063;-82
2022/05/09 12:47:35;;;;;;;8.70;2.20;;;37.40;18.70;;;;;;5093214;28;20097;-81
2022/05/09 12:50:07;;;;;;;4.65;1.70;;;37.20;17.90;;;;;;5095152;28;20134;-81
2022/05/09 12:52:45;;;;;;;9.10;2.30;;;36.90;18.30;;;;;;5105476;27;20051;-80
2022/05/09 12:57:59;;;;;;;4.55;1.73;;;36.10;18.50;;;;;;5132369;27;20078;-81
2022/05/09 13:00:31;;;;;;;7.70;1.98;;;35.50;18.70;;;;;;5111913;27;20092;-87
2022/05/09 13:03:08;;;;;;;4.68;1.95;;;35.20;18.80;;;;;;5114880;27;20040;-82
2022/05/09 13:05:41;;;;;;;8.00;2.50;;;34.90;18.70;;;;;;5094613;27;20082;-82
2022/05/09 13:08:09;;;;;;;5.40;1.85;;;34.90;18.80;;;;;;5103386;27;20042;-82
2022/05/09 13:11:06;;;;;;;5.80;1.92;;;35.20;18.90;;;;;;5093915;28;20055;-82
2022/05/09 13:13:36;;;;;;;8.50;2.85;;;35.90;18.10;;;;;;5112068;27;20055;-82
2022/05/09 13:16:03;;;;;;;6.97;2.08;;;35.60;17.70;;;;;;5111750;28;20048;-83
2022/05/09 13:18:30;;;;;;;6.00;2.20;;;34.60;18.40;;;;;;5094034;28;20054;-83